createdAt,value
2018-05-16T00:00:39.982Z,100558.71
2018-05-16T00:03:08.469Z,100565.79
2018-05-16T00:05:36.963Z,100562.08
2018-05-16T00:08:05.438Z,100561.56
2018-05-16T00:10:34.675Z,100565.41
2018-05-16T00:13:03.881Z,100571.52
2018-05-16T00:15:32.601Z,100569.92
2018-05-16T00:18:01.777Z,100580.98
2018-05-16T00:20:38.777Z,100579.05
2018-05-16T00:23:07.255Z,100576.48
2018-05-16T00:25:35.689Z,100586.51
2018-05-16T00:28:04.158Z,100587.66
2018-05-16T00:30:33.411Z,100596.55
2018-05-16T00:33:04.207Z,100599.65
2018-05-16T00:35:32.871Z,100602.51
2018-05-16T00:38:01.355Z,100607.48
2018-05-16T00:40:30.533Z,100607.47
2018-05-16T00:42:59.029Z,100606.63
2018-05-16T00:45:27.470Z,100609.90
2018-05-16T00:47:55.937Z,100618.30
2018-05-16T00:50:24.417Z,100612.17
2018-05-16T00:52:52.899Z,100627.30
2018-05-16T00:55:21.392Z,100614.27
2018-05-16T00:57:50.065Z,100617.44
2018-05-16T01:00:18.575Z,100627.92
2018-05-16T01:02:47.086Z,100634.74
2018-05-16T01:05:15.544Z,100640.64
2018-05-16T01:07:44.719Z,100631.16
2018-05-16T01:10:13.223Z,100627.32
2018-05-16T01:12:41.761Z,100615.30
2018-05-16T01:15:10.279Z,100616.81
2018-05-16T01:17:39.494Z,100605.48
2018-05-16T01:20:07.948Z,100608.45
2018-05-16T01:22:36.537Z,100628.59
2018-05-16T01:25:05.021Z,100639.47
2018-05-16T01:27:34.269Z,100645.38
2018-05-16T01:30:02.742Z,100650.01
2018-05-16T01:32:31.284Z,100642.37
2018-05-16T01:34:59.742Z,100648.59
2018-05-16T01:37:28.538Z,100648.53
2018-05-16T01:39:57.011Z,100640.69
2018-05-16T01:42:25.471Z,100633.18
2018-05-16T01:44:53.929Z,100624.69
2018-05-16T01:47:22.595Z,100620.09
2018-05-16T01:49:51.866Z,100621.59
2018-05-16T01:52:20.310Z,100611.45
2018-05-16T01:54:49.684Z,100606.67
2018-05-16T01:57:18.151Z,100610.35
2018-05-16T01:59:46.572Z,100602.84
2018-05-16T02:02:15.221Z,100586.45
2018-05-16T02:04:43.858Z,100587.11
2018-05-16T02:07:12.305Z,100589.17
2018-05-16T02:09:41.698Z,100581.83
2018-05-16T02:12:10.234Z,100574.78
2018-05-16T02:14:38.821Z,100580.41
2018-05-16T02:17:07.300Z,100580.14
2018-05-16T02:19:35.887Z,100587.27
2018-05-16T02:22:04.381Z,100587.23
2018-05-16T02:24:32.813Z,100585.25
2018-05-16T02:27:01.266Z,100593.94
2018-05-16T02:29:29.728Z,100593.73
2018-05-16T02:31:58.179Z,100589.59
2018-05-16T02:34:27.514Z,100589.69
2018-05-16T02:36:56.759Z,100588.23
2018-05-16T02:39:25.215Z,100593.19
2018-05-16T02:41:53.722Z,100598.07
2018-05-16T02:44:23.074Z,100597.15
2018-05-16T02:46:52.384Z,100598.55
2018-05-16T02:49:21.672Z,100592.37
2018-05-16T02:51:50.123Z,100585.71
2018-05-16T02:54:19.652Z,100587.62
2018-05-16T02:56:48.138Z,100591.38
2018-05-16T02:59:17.136Z,100584.92
2018-05-16T03:01:45.610Z,100586.06
2018-05-16T03:04:14.360Z,100588.17
2018-05-16T03:06:43.244Z,100596.23
2018-05-16T03:09:12.083Z,100590.05
2018-05-16T03:11:40.585Z,100601.18
2018-05-16T03:14:09.023Z,100596.94
2018-05-16T03:16:37.507Z,100603.92
2018-05-16T03:19:06.017Z,100606.77
2018-05-16T03:21:34.525Z,100605.94
2018-05-16T03:24:02.978Z,100605.61
2018-05-16T03:26:31.471Z,100610.37
2018-05-16T03:28:59.903Z,100610.68
2018-05-16T03:31:28.359Z,100612.59
2018-05-16T03:33:56.926Z,100619.30
2018-05-16T03:36:29.812Z,100632.28
2018-05-16T03:38:59.866Z,100634.52
2018-05-16T03:41:28.336Z,100636.76
2018-05-16T03:43:56.806Z,100639.51
2018-05-16T03:46:25.278Z,100648.91
2018-05-16T03:48:53.746Z,100640.53
2018-05-16T03:51:22.243Z,100645.03
2018-05-16T03:53:52.601Z,100658.34
2018-05-16T03:56:21.272Z,100662.01
2018-05-16T04:02:32.658Z,100669.19
2018-05-16T04:05:01.157Z,100671.23
2018-05-16T04:07:29.615Z,100675.27
2018-05-16T04:09:58.075Z,100671.22
2018-05-16T04:12:26.582Z,100677.89
2018-05-16T04:14:58.096Z,100679.75
2018-05-16T04:17:26.569Z,100671.63
2018-05-16T04:19:55.010Z,100677.13
2018-05-16T04:22:23.437Z,100679.12
2018-05-16T04:24:51.911Z,100683.45
2018-05-16T04:27:20.343Z,100676.59
2018-05-16T04:29:50.181Z,100684.71
2018-05-16T04:32:18.670Z,100678.33
2018-05-16T04:34:47.145Z,100680.75
2018-05-16T04:37:15.600Z,100680.91
2018-05-16T04:39:44.069Z,100674.53
2018-05-16T04:42:12.555Z,100681.03
2018-05-16T04:44:41.134Z,100684.83
2018-05-16T04:47:09.636Z,100690.12
2018-05-16T04:49:38.231Z,100690.09
2018-05-16T04:52:06.910Z,100701.52
2018-05-16T04:54:35.421Z,100698.95
2018-05-16T04:57:03.898Z,100699.48
2018-05-16T04:59:33.139Z,100693.97
2018-05-16T05:02:01.677Z,100694.51
2018-05-16T05:04:30.153Z,100690.53
2018-05-16T05:06:58.714Z,100700.20
2018-05-16T05:09:27.228Z,100695.86
2018-05-16T05:11:55.737Z,100699.45
2018-05-16T05:14:24.202Z,100699.75
2018-05-16T05:16:53.403Z,100698.33
2018-05-16T05:19:21.910Z,100700.86
2018-05-16T05:21:50.362Z,100700.17
2018-05-16T05:24:18.921Z,100700.72
2018-05-16T05:26:47.376Z,100700.70
2018-05-16T05:29:16.655Z,100700.07
2018-05-16T05:31:45.102Z,100692.14
2018-05-16T05:34:13.736Z,100697.01
2018-05-16T05:36:43.169Z,100699.64
2018-05-16T05:39:11.862Z,100702.77
2018-05-16T05:41:40.582Z,100694.58
2018-05-16T05:44:09.084Z,100693.77
2018-05-16T05:46:37.568Z,100699.66
2018-05-16T05:49:06.943Z,100693.97
2018-05-16T05:51:35.353Z,100702.38
2018-05-16T05:54:04.012Z,100705.85
2018-05-16T05:56:33.265Z,100700.97
2018-05-16T05:59:01.693Z,100698.00
2018-05-16T06:01:30.156Z,100695.28
2018-05-16T06:03:58.709Z,100692.02
2018-05-16T06:06:27.215Z,100696.12
2018-05-16T06:08:55.670Z,100698.74
2018-05-16T06:11:24.207Z,100703.19
2018-05-16T06:13:52.721Z,100704.22
2018-05-16T06:16:21.199Z,100696.88
2018-05-16T06:18:49.745Z,100706.04
2018-05-16T06:21:18.232Z,100705.70
2018-05-16T06:23:46.728Z,100715.30
2018-05-16T06:26:15.174Z,100714.55
2018-05-16T06:28:43.722Z,100721.41
2018-05-16T06:31:12.191Z,100726.45
2018-05-16T06:33:40.780Z,100728.71
2018-05-16T06:36:09.282Z,100730.97
2018-05-16T06:38:37.717Z,100735.87
2018-05-16T06:41:06.322Z,100735.13
2018-05-16T06:43:34.784Z,100741.89
2018-05-16T06:46:03.230Z,100739.74
2018-05-16T06:48:31.798Z,100736.47
2018-05-16T06:51:00.287Z,100737.64
2018-05-16T06:53:28.766Z,100744.35
2018-05-16T06:55:57.215Z,100741.38
2018-05-16T06:58:25.697Z,100741.20
2018-05-16T07:00:55.046Z,100739.52
2018-05-16T07:03:23.576Z,100738.93
2018-05-16T07:05:52.160Z,100742.92
2018-05-16T07:08:21.412Z,100742.94
2018-05-16T07:10:51.035Z,100746.94
2018-05-16T07:13:19.523Z,100737.87
2018-05-16T07:15:49.081Z,100742.16
2018-05-16T07:18:17.660Z,100744.77
2018-05-16T07:20:46.210Z,100747.05
2018-05-16T07:23:14.679Z,100749.73
2018-05-16T07:25:43.236Z,100750.39
2018-05-16T07:28:12.061Z,100747.20
2018-05-16T07:30:41.378Z,100744.88
2018-05-16T07:33:09.823Z,100750.16
2018-05-16T07:35:38.299Z,100754.22
2018-05-16T07:38:07.554Z,100747.88
2018-05-16T07:40:37.884Z,100751.64
2018-05-16T07:43:07.086Z,100748.17
2018-05-16T07:45:36.295Z,100750.30
2018-05-16T07:48:04.836Z,100752.40
2018-05-16T07:50:34.088Z,100754.21
2018-05-16T07:53:02.554Z,100751.03
2018-05-16T07:55:31.818Z,100753.67
2018-05-16T07:58:00.379Z,100755.27
2018-05-16T08:00:28.832Z,100755.44
2018-05-16T08:02:57.311Z,100765.44
2018-05-16T08:05:26.571Z,100759.16
2018-05-16T08:07:55.054Z,100762.50
2018-05-16T08:10:23.570Z,100765.57
2018-05-16T08:12:52.000Z,100773.50
2018-05-16T08:15:20.488Z,100777.34
2018-05-16T08:17:49.028Z,100780.39
2018-05-16T08:20:17.556Z,100784.23
2018-05-16T08:22:46.766Z,100784.69
2018-05-16T08:25:15.310Z,100784.83
2018-05-16T08:27:43.870Z,100790.73
2018-05-16T08:30:12.371Z,100785.77
2018-05-16T08:32:40.857Z,100779.38
2018-05-16T08:35:09.306Z,100777.98
2018-05-16T08:37:37.823Z,100775.38
2018-05-16T08:40:07.036Z,100780.75
2018-05-16T08:42:35.492Z,100784.32
2018-05-16T08:45:03.929Z,100784.27
2018-05-16T08:47:32.412Z,100778.59
2018-05-16T08:50:00.893Z,100789.72
2018-05-16T08:52:29.399Z,100783.19
2018-05-16T08:54:57.843Z,100785.83
2018-05-16T08:57:26.287Z,100788.58
2018-05-16T08:59:55.532Z,100787.11
2018-05-16T09:02:23.978Z,100789.87
2018-05-16T09:04:52.529Z,100788.81
2018-05-16T09:07:21.758Z,100788.47
2018-05-16T09:09:50.258Z,100784.10
2018-05-16T09:12:18.783Z,100784.59
2018-05-16T09:14:47.286Z,100784.16
2018-05-16T09:17:15.800Z,100776.75
2018-05-16T09:19:44.973Z,100772.37
2018-05-16T09:22:13.436Z,100780.73
2018-05-16T09:24:42.191Z,100785.16
2018-05-16T09:27:10.667Z,100776.91
2018-05-16T09:29:39.144Z,100782.75
2018-05-16T09:32:07.607Z,100787.13
2018-05-16T09:34:36.101Z,100786.57
2018-05-16T09:37:04.588Z,100783.70
2018-05-16T09:39:33.069Z,100788.80
2018-05-16T09:42:01.555Z,100795.36
2018-05-16T09:44:30.785Z,100797.52
2018-05-16T09:47:00.053Z,100799.24
2018-05-16T09:49:28.508Z,100794.62
2018-05-16T09:51:57.781Z,100800.75
2018-05-16T09:54:26.255Z,100797.08
2018-05-16T09:56:54.748Z,100797.91
2018-05-16T09:59:24.028Z,100794.84
2018-05-16T10:01:52.460Z,100794.74
2018-05-16T10:04:20.910Z,100787.56
2018-05-16T10:06:49.458Z,100788.30
2018-05-16T10:09:17.934Z,100793.76
2018-05-16T10:11:46.583Z,100807.20
2018-05-16T10:14:15.213Z,100807.28
2018-05-16T10:19:26.816Z,100804.81
2018-05-16T10:21:55.365Z,100814.63
2018-05-16T10:24:24.588Z,100820.31
2018-05-16T10:26:53.121Z,100821.77
2018-05-16T10:29:28.937Z,100814.45
2018-05-16T10:31:57.812Z,100812.75
2018-05-16T10:34:27.050Z,100819.91
2018-05-16T10:36:55.756Z,100815.70
2018-05-16T10:39:24.995Z,100821.30
2018-05-16T10:41:53.479Z,100821.84
2018-05-16T10:44:22.785Z,100813.63
2018-05-16T10:46:51.275Z,100818.33
2018-05-16T10:49:19.769Z,100813.65
2018-05-16T10:51:48.282Z,100817.22
2018-05-16T10:54:16.783Z,100815.67
2018-05-16T10:56:46.985Z,100817.03
2018-05-16T10:59:16.299Z,100812.29
2018-05-16T11:01:44.787Z,100805.07
2018-05-16T11:04:14.684Z,100804.78
2018-05-16T11:06:43.146Z,100804.81
2018-05-16T11:09:11.691Z,100811.45
2018-05-16T11:11:40.203Z,100811.06
2018-05-16T11:14:08.887Z,100815.09
2018-05-16T11:16:37.206Z,100816.83
2018-05-16T11:19:05.687Z,100815.69
2018-05-16T11:21:34.965Z,100817.78
2018-05-16T11:24:03.439Z,100804.15
2018-05-16T11:26:38.440Z,100816.16
2018-05-16T11:29:06.900Z,100808.14
2018-05-16T11:31:36.121Z,100822.02
2018-05-16T11:34:05.390Z,100817.64
2018-05-16T11:36:33.922Z,100829.64
2018-05-16T11:39:02.406Z,100827.93
2018-05-16T11:41:30.866Z,100824.12
2018-05-16T11:44:00.104Z,100831.02
2018-05-16T11:46:28.559Z,100833.46
2018-05-16T11:48:57.082Z,100839.26
2018-05-16T11:51:25.515Z,100837.91
2018-05-16T11:53:54.072Z,100845.73
2018-05-16T11:56:22.603Z,100844.09
2018-05-16T11:58:51.906Z,100836.25
2018-05-16T12:01:20.436Z,100851.18
2018-05-16T12:03:49.646Z,100852.75
2018-05-16T12:06:18.779Z,100854.36
2018-05-16T12:08:47.254Z,100862.27
2018-05-16T12:11:15.727Z,100861.88
2018-05-16T12:13:44.161Z,100866.22
2018-05-16T12:16:12.581Z,100869.94
2018-05-16T12:18:41.043Z,100879.56
2018-05-16T12:21:09.530Z,100873.95
2018-05-16T12:23:37.977Z,100868.68
2018-05-16T12:26:06.438Z,100864.36
2018-05-16T12:28:35.748Z,100863.04
2018-05-16T12:31:04.214Z,100855.78
2018-05-16T12:33:33.350Z,100849.99
2018-05-16T12:36:02.690Z,100848.20
2018-05-16T12:38:31.170Z,100847.28
2018-05-16T12:40:59.654Z,100852.15
2018-05-16T12:43:32.517Z,100854.95
2018-05-16T12:46:00.974Z,100848.27
2018-05-16T12:48:30.056Z,100849.89
2018-05-16T12:50:59.442Z,100852.74
2018-05-16T12:53:27.888Z,100857.62
2018-05-16T12:55:56.324Z,100852.89
2018-05-16T12:58:24.786Z,100856.36
2018-05-16T13:00:55.161Z,100855.76
2018-05-16T13:03:35.539Z,100856.41
2018-05-16T13:06:04.071Z,100859.02
2018-05-16T13:08:32.645Z,100865.22
2018-05-16T13:11:04.563Z,100864.39
2018-05-16T13:13:35.063Z,100868.77
2018-05-16T13:16:15.143Z,100865.72
2018-05-16T13:18:44.660Z,100862.17
2018-05-16T13:21:13.172Z,100852.63
2018-05-16T13:23:41.669Z,100855.34
2018-05-16T13:26:10.427Z,100862.53
2018-05-16T13:28:38.903Z,100862.08
2018-05-16T13:31:07.344Z,100857.57
2018-05-16T13:33:36.660Z,100857.86
2018-05-16T13:36:05.143Z,100858.76
2018-05-16T13:38:33.577Z,100863.07
2018-05-16T13:41:02.142Z,100867.83
2018-05-16T13:43:30.590Z,100861.88
2018-05-16T13:45:59.801Z,100864.95
2018-05-16T13:48:28.295Z,100859.23
2018-05-16T13:50:56.761Z,100868.01
2018-05-16T13:53:25.356Z,100854.19
2018-05-16T13:55:53.852Z,100847.64
2018-05-16T13:58:22.295Z,100833.59
2018-05-16T14:00:54.172Z,100828.62
2018-05-16T14:03:22.691Z,100823.80
2018-05-16T14:05:51.126Z,100810.89
2018-05-16T14:08:19.609Z,100811.38
2018-05-16T14:10:48.068Z,100806.92
2018-05-16T14:13:16.591Z,100798.16
2018-05-16T14:15:45.088Z,100798.88
2018-05-16T14:18:13.662Z,100793.91
2018-05-16T14:20:42.219Z,100789.20
2018-05-16T14:23:10.751Z,100787.05
2018-05-16T14:25:39.565Z,100785.41
2018-05-16T14:28:08.099Z,100770.09
2018-05-16T14:30:37.359Z,100770.24
2018-05-16T14:33:05.930Z,100768.31
2018-05-16T14:35:34.370Z,100768.40
2018-05-16T14:38:02.884Z,100774.01
2018-05-16T14:40:31.366Z,100764.94
2018-05-16T14:43:05.169Z,100756.67
2018-05-16T14:45:33.925Z,100753.36
2018-05-16T14:48:02.362Z,100754.76
2018-05-16T14:50:32.843Z,100758.70
2018-05-16T14:53:01.358Z,100750.30
2018-05-16T14:55:29.855Z,100745.53
2018-05-16T14:57:58.271Z,100739.53
2018-05-16T15:00:26.725Z,100727.99
2018-05-16T15:02:56.975Z,100719.47
2018-05-16T15:05:25.463Z,100722.36
2018-05-16T15:07:53.955Z,100723.47
2018-05-16T15:10:23.336Z,100711.27
2018-05-16T15:12:51.847Z,100712.29
2018-05-16T15:15:20.425Z,100703.12
2018-05-16T15:17:48.971Z,100700.88
2018-05-16T15:20:17.528Z,100704.43
2018-05-16T15:22:45.958Z,100705.88
2018-05-16T15:25:14.427Z,100714.63
2018-05-16T15:27:42.852Z,100715.71
2018-05-16T15:30:11.376Z,100716.48
2018-05-16T15:32:44.069Z,100705.65
2018-05-16T15:35:12.587Z,100702.83
2018-05-16T15:37:41.132Z,100706.66
2018-05-16T15:40:09.638Z,100707.77
2018-05-16T15:42:38.066Z,100702.16
2018-05-16T15:45:06.578Z,100701.39
2018-05-16T15:47:35.132Z,100702.64
2018-05-16T15:50:03.594Z,100701.97
2018-05-16T15:52:32.078Z,100704.91
2018-05-16T15:55:01.291Z,100690.11
2018-05-16T15:57:29.728Z,100686.19
2018-05-16T15:59:58.144Z,100686.66
2018-05-16T16:02:26.697Z,100687.95
2018-05-16T16:04:56.752Z,100692.80
2018-05-16T16:07:25.247Z,100704.64
2018-05-16T16:09:59.355Z,100703.56
2018-05-16T16:12:27.877Z,100702.40
2018-05-16T16:14:56.313Z,100711.90
2018-05-16T16:17:24.746Z,100714.41
2018-05-16T16:19:53.262Z,100723.69
2018-05-16T16:22:21.706Z,100722.29
2018-05-16T16:24:54.971Z,100736.13
2018-05-16T16:27:23.422Z,100743.61
2018-05-16T16:29:52.086Z,100752.32
2018-05-16T16:32:21.443Z,100755.30
2018-05-16T16:34:51.047Z,100768.83
2018-05-16T16:37:19.523Z,100768.40
2018-05-16T16:39:47.955Z,100762.52
2018-05-16T16:42:17.213Z,100784.33
2018-05-16T16:44:45.747Z,100824.28
2018-05-16T16:47:14.950Z,100879.84
2018-05-16T16:49:44.329Z,100917.96
2018-05-16T16:52:15.174Z,100875.19
2018-05-16T16:54:43.883Z,100816.44
2018-05-16T16:57:12.985Z,100818.57
2018-05-16T16:59:41.915Z,100858.61
2018-05-16T17:02:10.582Z,100835.14
2018-05-16T17:04:39.077Z,100817.83
2018-05-16T17:07:07.545Z,100805.11
2018-05-16T17:09:36.031Z,100793.11
2018-05-16T17:12:04.496Z,100791.90
2018-05-16T17:14:32.997Z,100799.59
2018-05-16T17:17:01.531Z,100795.56
2018-05-16T17:19:30.019Z,100808.37
2018-05-16T17:21:58.679Z,100808.32
2018-05-16T17:24:28.278Z,100814.77
2018-05-16T17:26:57.419Z,100814.56
2018-05-16T17:29:27.763Z,100813.86
2018-05-16T17:31:57.400Z,100818.12
2018-05-16T17:34:26.654Z,100813.63
2018-05-16T17:36:55.540Z,100829.27
2018-05-16T17:39:24.165Z,100830.30
2018-05-16T17:41:53.398Z,100850.39
2018-05-16T17:44:22.587Z,100857.52
2018-05-16T17:46:52.794Z,100878.72
2018-05-16T17:49:22.825Z,100888.45
2018-05-16T17:51:52.232Z,100928.89
2018-05-16T17:54:21.593Z,100948.16
2018-05-16T17:56:51.135Z,100953.76
2018-05-16T17:59:20.508Z,100960.19
2018-05-16T18:01:49.792Z,100958.83
2018-05-16T18:04:19.107Z,100959.52
2018-05-16T18:06:48.503Z,100963.80
2018-05-16T18:09:18.301Z,100961.74
2018-05-16T18:11:47.945Z,100970.46
2018-05-16T18:14:34.990Z,100966.72
2018-05-16T18:17:21.628Z,100971.98
2018-05-16T18:19:51.305Z,100968.58
2018-05-16T18:22:20.950Z,100957.92
2018-05-16T18:24:56.756Z,100953.14
2018-05-16T18:27:26.391Z,100937.28
2018-05-16T18:29:56.190Z,100934.08
2018-05-16T18:32:25.826Z,100931.73
2018-05-16T18:34:56.183Z,100946.06
2018-05-16T18:37:25.882Z,100950.61
2018-05-16T18:39:55.682Z,100946.16
2018-05-16T18:42:25.470Z,100940.74
2018-05-16T18:45:00.847Z,100937.67
2018-05-16T18:47:31.230Z,100925.97
2018-05-16T18:50:01.550Z,100928.08
2018-05-16T18:52:31.283Z,100925.91
2018-05-16T18:55:01.092Z,100938.14
2018-05-16T18:57:30.765Z,100943.69
2018-05-16T19:00:01.288Z,100949.76
2018-05-16T19:02:30.916Z,100957.78
2018-05-16T19:05:00.812Z,100954.30
2018-05-16T19:07:31.218Z,100950.62
2018-05-16T19:10:00.993Z,100956.13
2018-05-16T19:12:30.777Z,100948.00
2018-05-16T19:15:00.612Z,100948.83
2018-05-16T19:17:30.361Z,100946.63
2018-05-16T19:20:00.340Z,100952.46
2018-05-16T19:22:30.006Z,100955.23
2018-05-16T19:24:59.816Z,100964.21
2018-05-16T19:27:30.165Z,100974.66
2018-05-16T19:30:00.825Z,100982.02
2018-05-16T19:32:30.492Z,100993.83
2018-05-16T19:35:00.220Z,100996.19
2018-05-16T19:37:30.064Z,101000.28
2018-05-16T19:39:59.782Z,100999.63
2018-05-16T19:42:29.331Z,101005.95
2018-05-16T19:44:58.985Z,101018.12
2018-05-16T19:47:28.826Z,101022.64
2018-05-16T19:49:58.474Z,101029.63
2018-05-16T19:52:28.112Z,101028.80
2018-05-16T19:54:58.705Z,101038.67
2018-05-16T19:57:29.279Z,101044.02
2018-05-16T19:59:59.027Z,101045.00
2018-05-16T20:02:28.874Z,101054.73
2018-05-16T20:04:58.675Z,101057.06
2018-05-16T20:07:28.554Z,101054.06
2018-05-16T20:10:02.536Z,101051.31
2018-05-16T20:12:32.184Z,101061.35
2018-05-16T20:15:01.881Z,101071.42
2018-05-16T20:17:32.426Z,101079.34
2018-05-16T20:20:02.194Z,101077.80
2018-05-16T20:22:31.648Z,101080.03
2018-05-16T20:25:01.471Z,101079.55
2018-05-16T20:27:31.245Z,101076.07
2018-05-16T20:30:00.923Z,101074.14
2018-05-16T20:32:31.265Z,101073.88
2018-05-16T20:35:01.888Z,101068.64
2018-05-16T20:37:31.530Z,101062.94
2018-05-16T20:40:01.186Z,101071.44
2018-05-16T20:42:30.157Z,101072.08
2018-05-16T20:44:59.252Z,101069.29
2018-05-16T20:47:27.956Z,101066.70
2018-05-16T20:49:56.471Z,101055.30
2018-05-16T20:52:26.771Z,101058.78
2018-05-16T20:54:55.323Z,101063.27
2018-05-16T20:57:23.854Z,101059.27
2018-05-16T20:59:52.763Z,101060.01
2018-05-16T21:02:21.407Z,101060.84
2018-05-16T21:04:49.903Z,101058.40
2018-05-16T21:07:18.402Z,101060.71
2018-05-16T21:09:50.446Z,101057.42
2018-05-16T21:12:18.949Z,101058.47
2018-05-16T21:14:47.422Z,101071.30
2018-05-16T21:17:15.915Z,101066.95
2018-05-16T21:19:44.389Z,101072.30
2018-05-16T21:22:12.853Z,101076.72
2018-05-16T21:24:42.093Z,101075.80
2018-05-16T21:27:11.662Z,101070.83
2018-05-16T21:29:40.150Z,101069.84
2018-05-16T21:32:08.660Z,101068.30
2018-05-16T21:34:37.368Z,101080.45
2018-05-16T21:37:06.862Z,101079.84
2018-05-16T21:39:35.432Z,101082.20
2018-05-16T21:42:04.938Z,101072.33
2018-05-16T21:44:34.422Z,101081.56
2018-05-16T21:47:02.984Z,101078.01
2018-05-16T21:49:31.487Z,101090.20
2018-05-16T21:52:00.161Z,101089.12
2018-05-16T21:54:28.642Z,101105.68
2018-05-16T21:56:57.121Z,101104.41
2018-05-16T21:59:25.628Z,101120.63
2018-05-16T22:01:54.104Z,101129.10
2018-05-16T22:04:22.600Z,101134.34
2018-05-16T22:06:51.260Z,101123.30
2018-05-16T22:09:19.773Z,101134.48
2018-05-16T22:11:48.237Z,101133.19
2018-05-16T22:14:16.755Z,101127.92
2018-05-16T22:16:45.250Z,101129.62
2018-05-16T22:19:13.743Z,101126.59
2018-05-16T22:21:42.226Z,101133.55
2018-05-16T22:24:10.976Z,101134.98
2018-05-16T22:26:39.453Z,101128.67
2018-05-16T22:29:07.954Z,101140.62
2018-05-16T22:31:42.570Z,101142.92
2018-05-16T22:34:17.707Z,101139.45
2018-05-16T22:36:51.884Z,101134.56
2018-05-16T22:39:25.810Z,101139.78
2018-05-16T22:41:59.769Z,101137.48
2018-05-16T22:44:33.564Z,101137.48
2018-05-16T22:47:02.030Z,101142.70
2018-05-16T22:49:30.497Z,101141.04
2018-05-16T22:51:58.937Z,101137.59
2018-05-16T22:54:28.285Z,101137.08
2018-05-16T22:56:56.854Z,101132.65
2018-05-16T22:59:25.532Z,101142.22
2018-05-16T23:01:54.218Z,101130.70
2018-05-16T23:04:22.680Z,101134.58
2018-05-16T23:06:51.616Z,101129.65
2018-05-16T23:09:20.643Z,101126.78
2018-05-16T23:11:49.777Z,101130.73
2018-05-16T23:14:19.042Z,101138.34
2018-05-16T23:16:47.550Z,101135.26
2018-05-16T23:19:16.426Z,101137.37
2018-05-16T23:21:44.901Z,101131.14
2018-05-16T23:24:13.370Z,101136.74
2018-05-16T23:26:41.939Z,101139.65
2018-05-16T23:29:10.416Z,101134.42
2018-05-16T23:31:38.920Z,101134.03
2018-05-16T23:34:07.407Z,101134.55
2018-05-16T23:36:35.864Z,101134.33
2018-05-16T23:39:04.406Z,101129.25
2018-05-16T23:41:33.025Z,101137.44
2018-05-16T23:44:01.849Z,101145.44
2018-05-16T23:46:30.306Z,101149.66
2018-05-16T23:48:59.330Z,101150.03
2018-05-16T23:51:27.805Z,101159.50
2018-05-16T23:53:56.297Z,101166.05
2018-05-16T23:56:24.785Z,101160.23
2018-05-16T23:58:53.457Z,101168.53
